createdAt,value
2022-10-20T00:06:58.829Z,6.40
2022-10-20T00:17:01.566Z,6.30
2022-10-20T00:27:03.374Z,6.26
2022-10-20T00:37:04.978Z,6.16
2022-10-20T00:47:11.852Z,6.04
2022-10-20T00:57:13.688Z,5.91
2022-10-20T01:07:16.372Z,5.82
2022-10-20T01:17:31.774Z,5.79
2022-10-20T01:27:48.883Z,5.72
2022-10-20T01:38:12.516Z,5.61
2022-10-20T01:48:18.317Z,5.61
2022-10-20T01:58:29.580Z,5.53
2022-10-20T02:09:02.315Z,5.55
2022-10-20T02:19:07.857Z,5.43
2022-10-20T02:29:15.874Z,5.34
2022-10-20T02:39:17.461Z,5.32
2022-10-20T02:49:20.565Z,5.25
2022-10-20T02:59:22.313Z,5.20
2022-10-20T03:09:24.104Z,5.04
2022-10-20T03:19:25.996Z,4.82
2022-10-20T03:29:32.850Z,4.70
2022-10-20T03:39:34.568Z,4.47
2022-10-20T03:49:36.148Z,4.47
2022-10-20T03:59:37.857Z,4.22
2022-10-20T04:09:39.542Z,4.15
2022-10-20T04:19:41.307Z,4.17
2022-10-20T04:29:43.011Z,4.16
2022-10-20T04:39:44.800Z,3.91
2022-10-20T04:49:46.574Z,3.79
2022-10-20T04:59:48.235Z,3.91
2022-10-20T05:09:49.763Z,3.89
2022-10-20T05:19:52.305Z,3.91
2022-10-20T05:29:55.160Z,3.91
2022-10-20T05:39:56.781Z,4.10
2022-10-20T05:49:58.368Z,4.18
2022-10-20T05:59:59.914Z,4.39
2022-10-20T06:10:01.659Z,4.66
2022-10-20T06:20:03.616Z,5.07
2022-10-20T06:30:05.832Z,5.48
2022-10-20T06:40:07.782Z,5.89
2022-10-20T06:50:09.718Z,6.36
2022-10-20T07:00:11.724Z,6.97
2022-10-20T07:10:13.390Z,7.48
2022-10-20T07:20:15.031Z,7.96
2022-10-20T07:30:17.916Z,8.71
2022-10-20T07:50:32.211Z,9.85
2022-10-20T08:00:33.989Z,10.71
2022-10-20T08:10:35.616Z,11.16
2022-10-20T08:20:42.258Z,11.74
2022-10-20T08:30:44.334Z,11.60
2022-10-20T08:40:46.007Z,12.75
2022-10-20T08:50:50.588Z,13.42
2022-10-20T09:01:01.225Z,13.98
2022-10-20T09:11:04.820Z,14.85
2022-10-20T09:21:21.990Z,16.27
2022-10-20T09:31:33.154Z,16.32
2022-10-20T09:41:36.094Z,16.67
2022-10-20T09:51:37.750Z,17.21
2022-10-20T10:01:56.790Z,17.50
2022-10-20T10:12:14.365Z,18.03
2022-10-20T10:22:17.120Z,20.11
2022-10-20T10:32:23.117Z,20.61
2022-10-20T10:42:48.683Z,19.73
2022-10-20T10:53:04.922Z,21.36
2022-10-20T11:03:12.108Z,19.02
2022-10-20T11:13:33.927Z,22.06
2022-10-20T11:23:52.123Z,18.42
2022-10-20T11:34:17.167Z,17.24
2022-10-20T11:44:35.114Z,24.30
2022-10-20T11:55:13.841Z,18.49
2022-10-20T12:05:21.849Z,26.12
2022-10-20T12:15:30.890Z,23.14
2022-10-20T12:25:41.490Z,21.93
2022-10-20T12:36:07.861Z,27.09
2022-10-20T12:46:16.165Z,17.71
2022-10-20T12:56:21.831Z,27.85
2022-10-20T13:06:30.682Z,25.84
2022-10-20T13:16:34.094Z,29.45
2022-10-20T13:26:47.544Z,25.28
2022-10-20T13:37:01.327Z,27.50
2022-10-20T13:47:27.118Z,28.43
2022-10-20T13:57:35.004Z,28.91
2022-10-20T14:07:43.164Z,27.27
2022-10-20T14:17:55.781Z,27.75
2022-10-20T14:27:58.631Z,23.59
2022-10-20T14:38:09.962Z,19.49
2022-10-20T14:48:15.505Z,15.20
2022-10-20T14:58:47.705Z,14.44
2022-10-20T15:08:57.882Z,13.84
2022-10-20T15:19:25.863Z,13.10
2022-10-20T15:29:27.877Z,12.75
2022-10-20T15:39:32.731Z,12.36
2022-10-20T15:49:34.674Z,11.98
2022-10-20T15:59:36.775Z,11.52
2022-10-20T16:09:39.519Z,11.09
2022-10-20T16:19:41.104Z,10.84
2022-10-20T16:29:45.172Z,10.45
2022-10-20T16:39:50.250Z,10.09
2022-10-20T16:50:01.257Z,9.73
2022-10-20T17:00:04.097Z,9.44
2022-10-20T17:10:06.952Z,9.29
2022-10-20T17:20:09.389Z,9.02
2022-10-20T17:30:12.269Z,8.78
2022-10-20T17:40:14.527Z,8.59
2022-10-20T17:50:17.427Z,8.35
2022-10-20T18:00:26.987Z,8.17
2022-10-20T18:10:45.872Z,7.91
2022-10-20T18:20:56.967Z,7.82
2022-10-20T18:31:12.838Z,7.81
2022-10-20T18:41:19.463Z,7.67
2022-10-20T18:51:22.687Z,7.54
2022-10-20T19:01:30.604Z,7.73
2022-10-20T19:11:37.592Z,7.85
2022-10-20T19:21:41.201Z,7.74
2022-10-20T19:31:49.961Z,7.57
2022-10-20T19:41:52.932Z,7.30
2022-10-20T19:51:56.041Z,7.18
2022-10-20T20:02:12.516Z,6.79
2022-10-20T20:12:16.231Z,6.42
2022-10-20T20:22:19.234Z,6.29
2022-10-20T20:32:20.905Z,6.19
2022-10-20T20:42:22.699Z,5.95
2022-10-20T20:52:24.620Z,5.82
2022-10-20T21:02:26.237Z,5.75
2022-10-20T21:12:29.648Z,5.63
2022-10-20T21:22:33.474Z,5.40
2022-10-20T21:32:35.426Z,5.40
2022-10-20T21:42:37.708Z,5.23
2022-10-20T21:52:39.824Z,5.21
2022-10-20T22:02:42.906Z,5.24
2022-10-20T22:12:44.511Z,5.02
2022-10-20T22:22:48.191Z,5.08
2022-10-20T22:32:50.932Z,4.87
2022-10-20T22:42:52.853Z,4.89
2022-10-20T22:52:56.560Z,4.76
2022-10-20T23:02:58.180Z,4.61
2022-10-20T23:13:03.876Z,4.53
2022-10-20T23:23:05.435Z,4.39
2022-10-20T23:33:07.114Z,4.20
2022-10-20T23:43:08.810Z,4.01
2022-10-20T23:53:34.185Z,3.95
